createdAt,value
2018-05-10T00:00:27.225Z,4.30
2018-05-10T00:02:31.208Z,4.80
2018-05-10T00:04:36.023Z,6.53
2018-05-10T00:06:40.497Z,6.07
2018-05-10T00:08:45.092Z,5.50
2018-05-10T00:10:49.041Z,5.23
2018-05-10T00:12:53.967Z,6.13
2018-05-10T00:14:58.657Z,5.20
2018-05-10T00:17:02.697Z,5.23
2018-05-10T00:19:07.957Z,8.27
2018-05-10T00:21:12.561Z,5.40
2018-05-10T00:23:17.267Z,4.70
2018-05-10T00:25:21.837Z,6.07
2018-05-10T00:27:25.858Z,5.40
2018-05-10T00:29:29.840Z,7.60
2018-05-10T00:31:37.308Z,6.77
2018-05-10T00:33:41.982Z,6.73
2018-05-10T00:35:46.969Z,7.37
2018-05-10T00:37:52.069Z,5.30
2018-05-10T00:39:55.936Z,6.03
2018-05-10T00:41:59.929Z,7.13
2018-05-10T00:44:04.601Z,5.97
2018-05-10T00:46:08.775Z,5.47
2018-05-10T00:48:13.352Z,4.87
2018-05-10T00:50:17.329Z,6.73
2018-05-10T00:52:21.306Z,6.07
2018-05-10T00:54:35.395Z,6.93
2018-05-10T00:56:39.272Z,5.33
2018-05-10T00:58:43.168Z,6.33
2018-05-10T01:00:48.440Z,5.07
2018-05-10T01:02:52.375Z,4.80
2018-05-10T01:04:56.565Z,5.77
2018-05-10T01:07:01.620Z,6.07
2018-05-10T01:09:06.158Z,6.50
2018-05-10T01:11:10.250Z,7.37
2018-05-10T01:13:15.047Z,8.20
2018-05-10T01:15:47.401Z,4.90
2018-05-10T01:17:51.262Z,6.17
2018-05-10T01:19:55.919Z,5.13
2018-05-10T01:21:59.894Z,7.00
2018-05-10T01:24:03.924Z,5.90
2018-05-10T01:26:07.826Z,7.90
2018-05-10T01:28:11.795Z,6.60
2018-05-10T01:30:15.673Z,7.13
2018-05-10T01:32:19.666Z,8.57
2018-05-10T01:34:23.668Z,9.37
2018-05-10T01:36:28.643Z,12.03
2018-05-10T01:38:32.642Z,14.57
2018-05-10T01:40:36.747Z,10.03
2018-05-10T01:42:41.716Z,7.50
2018-05-10T01:44:45.698Z,9.23
2018-05-10T01:46:49.759Z,6.87
2018-05-10T01:48:54.892Z,10.27
2018-05-10T01:50:59.831Z,8.40
2018-05-10T01:53:03.849Z,11.03
2018-05-10T01:55:07.977Z,7.33
2018-05-10T01:57:12.078Z,7.40
2018-05-10T01:59:16.075Z,7.13
2018-05-10T02:01:20.125Z,6.77
2018-05-10T02:03:24.187Z,11.17
2018-05-10T02:05:29.069Z,8.97
2018-05-10T02:07:33.096Z,8.07
2018-05-10T02:09:37.318Z,8.53
2018-05-10T02:11:41.489Z,11.10
2018-05-10T02:13:45.956Z,8.10
2018-05-10T02:15:50.053Z,9.43
2018-05-10T02:17:54.024Z,8.50
2018-05-10T02:19:58.146Z,8.90
2018-05-10T02:22:03.537Z,7.27
2018-05-10T02:24:08.600Z,8.97
2018-05-10T02:26:12.534Z,14.07
2018-05-10T02:28:16.692Z,13.17
2018-05-10T02:30:24.241Z,11.87
2018-05-10T02:32:28.199Z,12.23
2018-05-10T02:34:32.115Z,12.80
2018-05-10T02:36:36.146Z,14.37
2018-05-10T02:38:40.381Z,10.57
2018-05-10T02:40:44.371Z,11.47
2018-05-10T02:42:48.298Z,15.47
2018-05-10T02:44:52.274Z,9.90
2018-05-10T02:46:56.145Z,9.17
2018-05-10T02:49:00.787Z,9.80
2018-05-10T02:51:05.694Z,9.00
2018-05-10T02:53:09.617Z,9.17
2018-05-10T02:55:13.956Z,8.83
2018-05-10T02:57:17.829Z,9.57
2018-05-10T02:59:22.740Z,10.03
2018-05-10T03:01:26.650Z,10.27
2018-05-10T03:03:30.832Z,9.97
2018-05-10T03:05:35.848Z,10.93
2018-05-10T03:07:40.160Z,9.43
2018-05-10T03:09:44.408Z,9.60
2018-05-10T03:11:48.324Z,8.77
2018-05-10T03:13:52.268Z,14.97
2018-05-10T03:15:56.247Z,9.13
2018-05-10T03:18:02.143Z,12.10
2018-05-10T03:20:06.354Z,10.53
2018-05-10T03:22:10.477Z,12.20
2018-05-10T03:24:16.353Z,12.00
2018-05-10T03:26:21.134Z,12.87
2018-05-10T03:28:29.025Z,14.20
2018-05-10T03:30:33.175Z,10.17
2018-05-10T03:32:37.181Z,10.20
2018-05-10T03:34:42.334Z,9.07
2018-05-10T03:36:46.592Z,10.80
2018-05-10T03:38:52.477Z,10.67
2018-05-10T03:40:57.349Z,9.87
2018-05-10T03:43:01.315Z,9.47
2018-05-10T03:45:06.375Z,10.50
2018-05-10T03:47:11.542Z,8.60
2018-05-10T03:49:15.765Z,8.67
2018-05-10T03:51:19.753Z,8.63
2018-05-10T03:53:23.961Z,8.77
2018-05-10T03:55:27.828Z,9.50
2018-05-10T03:57:32.791Z,6.70
2018-05-10T03:59:36.675Z,7.97
2018-05-10T04:01:40.939Z,8.60
2018-05-10T04:03:53.784Z,8.07
2018-05-10T04:06:09.495Z,7.33
2018-05-10T04:09:22.155Z,7.50
2018-05-10T04:11:26.111Z,10.90
2018-05-10T04:13:30.587Z,8.10
2018-05-10T04:15:34.729Z,9.37
2018-05-10T04:17:38.687Z,9.73
2018-05-10T04:19:42.931Z,11.47
2018-05-10T04:21:46.783Z,10.73
2018-05-10T04:23:50.784Z,8.90
2018-05-10T04:25:55.140Z,7.73
2018-05-10T04:27:59.095Z,8.23
2018-05-10T04:30:05.388Z,12.40
2018-05-10T04:32:09.826Z,9.57
2018-05-10T04:34:13.725Z,9.17
2018-05-10T04:36:17.610Z,9.40
2018-05-10T04:38:21.793Z,9.23
2018-05-10T04:40:25.654Z,9.70
2018-05-10T04:42:29.528Z,12.87
2018-05-10T04:44:33.359Z,10.63
2018-05-10T04:46:37.446Z,14.57
2018-05-10T04:48:47.746Z,13.70
2018-05-10T04:50:53.684Z,14.70
2018-05-10T04:52:57.543Z,15.33
2018-05-10T04:55:02.165Z,16.83
2018-05-10T04:57:08.682Z,16.83
2018-05-10T04:59:13.042Z,19.57
2018-05-10T05:01:17.351Z,18.73
2018-05-10T05:03:25.533Z,19.57
2018-05-10T05:05:30.395Z,21.80
2018-05-10T05:07:34.341Z,22.33
2018-05-10T05:09:38.409Z,22.50
2018-05-10T05:11:42.244Z,22.30
2018-05-10T05:13:46.165Z,22.80
2018-05-10T05:15:50.025Z,21.87
2018-05-10T05:17:56.975Z,23.37
2018-05-10T05:20:01.646Z,22.77
2018-05-10T05:22:05.468Z,27.33
2018-05-10T05:24:11.754Z,24.27
2018-05-10T05:26:15.645Z,26.73
2018-05-10T05:28:20.355Z,22.70
2018-05-10T05:30:25.828Z,24.33
2018-05-10T05:32:29.717Z,23.13
2018-05-10T05:34:33.704Z,24.60
2018-05-10T05:36:43.513Z,25.17
2018-05-10T05:38:47.664Z,24.77
2018-05-10T05:40:52.045Z,28.40
2018-05-10T05:42:56.224Z,28.57
2018-05-10T05:45:00.315Z,30.97
2018-05-10T05:47:04.151Z,33.03
2018-05-10T05:49:12.279Z,29.87
2018-05-10T05:51:16.279Z,34.77
2018-05-10T05:53:20.903Z,28.87
2018-05-10T05:55:24.788Z,31.00
2018-05-10T05:57:29.398Z,34.33
2018-05-10T05:59:33.296Z,37.57
2018-05-10T06:01:37.720Z,41.03
2018-05-10T06:03:42.904Z,39.07
2018-05-10T06:05:47.358Z,38.37
2018-05-10T06:07:56.736Z,39.53
2018-05-10T06:10:00.611Z,35.07
2018-05-10T06:12:04.499Z,31.60
2018-05-10T06:14:08.860Z,29.47
2018-05-10T06:16:13.618Z,27.33
2018-05-10T06:18:17.602Z,25.90
2018-05-10T06:20:21.432Z,26.60
2018-05-10T06:22:25.305Z,20.20
2018-05-10T06:24:29.278Z,23.30
2018-05-10T06:26:34.342Z,22.20
2018-05-10T06:28:39.015Z,19.63
2018-05-10T06:30:42.836Z,19.53
2018-05-10T06:32:47.076Z,17.90
2018-05-10T06:34:51.705Z,18.80
2018-05-10T06:36:56.310Z,19.00
2018-05-10T06:39:05.737Z,18.97
2018-05-10T06:41:09.705Z,15.80
2018-05-10T06:43:13.567Z,17.63
2018-05-10T06:45:23.190Z,18.23
2018-05-10T06:47:28.113Z,16.90
2018-05-10T06:49:32.750Z,15.17
2018-05-10T06:51:42.788Z,15.43
2018-05-10T06:53:49.549Z,15.60
2018-05-10T06:55:59.254Z,15.83
2018-05-10T06:58:03.412Z,37.20
2018-05-10T07:00:07.437Z,42.50
2018-05-10T07:02:12.870Z,47.97
2018-05-10T07:04:22.359Z,49.73
2018-05-10T07:06:27.587Z,52.03
2018-05-10T07:08:32.800Z,52.20
2018-05-10T07:10:40.935Z,51.17
2018-05-10T07:12:47.782Z,49.87
2018-05-10T07:14:52.123Z,49.67
2018-05-10T07:16:58.132Z,52.83
2018-05-10T07:19:03.927Z,51.63
2018-05-10T07:21:07.972Z,50.97
2018-05-10T07:23:12.948Z,53.77
2018-05-10T07:25:16.784Z,55.50
2018-05-10T07:27:20.773Z,56.50
2018-05-10T07:29:24.925Z,59.47
2018-05-10T07:31:28.847Z,53.07
2018-05-10T07:33:40.217Z,49.57
2018-05-10T07:35:44.057Z,50.13
2018-05-10T07:37:47.949Z,50.63
2018-05-10T07:39:52.970Z,50.00
2018-05-10T07:41:58.789Z,47.23
2018-05-10T07:44:02.717Z,47.10
2018-05-10T07:46:08.067Z,48.33
2018-05-10T07:48:18.006Z,47.57
2018-05-10T07:50:22.184Z,48.37
2018-05-10T07:52:27.378Z,46.83
2018-05-10T07:54:32.618Z,46.57
2018-05-10T07:56:36.707Z,43.33
2018-05-10T07:58:41.886Z,43.60
2018-05-10T08:00:45.952Z,43.60
2018-05-10T08:02:51.283Z,41.10
2018-05-10T08:04:55.241Z,41.67
2018-05-10T08:06:59.391Z,41.30
2018-05-10T08:09:03.267Z,40.87
2018-05-10T08:11:07.245Z,40.63
2018-05-10T08:13:11.544Z,43.83
2018-05-10T08:15:18.207Z,44.37
2018-05-10T08:17:23.308Z,43.77
2018-05-10T08:19:27.638Z,44.17
2018-05-10T08:21:31.775Z,46.47
2018-05-10T08:23:46.244Z,45.47
2018-05-10T08:25:50.284Z,45.20
2018-05-10T08:27:54.234Z,43.40
2018-05-10T08:29:59.096Z,38.87
2018-05-10T08:32:04.727Z,31.83
2018-05-10T08:34:08.800Z,31.87
2018-05-10T08:36:13.009Z,30.23
2018-05-10T08:38:17.614Z,30.93
2018-05-10T08:40:22.205Z,31.37
2018-05-10T08:42:27.092Z,32.73
2018-05-10T08:44:31.482Z,31.37
2018-05-10T08:46:35.454Z,32.60
2018-05-10T08:48:39.265Z,30.37
2018-05-10T08:50:43.121Z,29.07
2018-05-10T08:52:47.151Z,30.43
2018-05-10T08:54:51.839Z,29.47
2018-05-10T08:56:55.736Z,29.33
2018-05-10T08:58:59.631Z,27.80
2018-05-10T09:01:03.484Z,28.77
2018-05-10T09:03:09.518Z,27.20
2018-05-10T09:05:13.530Z,28.60
2018-05-10T09:07:17.459Z,29.57
2018-05-10T09:09:22.428Z,27.00
2018-05-10T09:11:26.373Z,27.53
2018-05-10T09:13:30.292Z,27.53
2018-05-10T09:15:34.506Z,28.57
2018-05-10T09:17:39.251Z,28.30
2018-05-10T09:19:43.925Z,27.93
2018-05-10T09:21:48.178Z,27.30
2018-05-10T09:23:52.864Z,26.83
2018-05-10T09:26:04.591Z,25.97
2018-05-10T09:28:09.064Z,27.27
2018-05-10T09:30:15.599Z,26.73
2018-05-10T09:32:19.745Z,28.00
2018-05-10T09:34:23.902Z,27.90
2018-05-10T09:36:28.606Z,26.63
2018-05-10T09:38:32.573Z,26.13
2018-05-10T09:40:37.144Z,25.80
2018-05-10T09:42:41.734Z,25.77
2018-05-10T09:44:45.845Z,26.30
2018-05-10T09:46:50.029Z,25.73
2018-05-10T09:48:53.937Z,22.70
2018-05-10T09:50:57.805Z,17.67
2018-05-10T09:53:03.084Z,17.30
2018-05-10T09:55:07.101Z,16.30
2018-05-10T09:57:10.991Z,16.13
2018-05-10T09:59:15.510Z,16.70
2018-05-10T10:01:19.569Z,16.40
2018-05-10T10:03:24.001Z,17.37
2018-05-10T10:05:31.074Z,17.87
2018-05-10T10:07:35.042Z,17.63
2018-05-10T10:09:39.568Z,18.27
2018-05-10T10:11:43.505Z,16.87
2018-05-10T10:13:47.343Z,17.53
2018-05-10T10:15:51.265Z,18.10
2018-05-10T10:17:55.465Z,17.73
2018-05-10T10:19:59.377Z,17.70
2018-05-10T10:22:03.256Z,18.93
2018-05-10T10:24:07.521Z,16.47
2018-05-10T10:26:11.533Z,13.30
2018-05-10T10:28:15.435Z,12.67
2018-05-10T10:30:20.050Z,12.87
2018-05-10T10:32:24.087Z,14.57
2018-05-10T10:34:27.928Z,15.83
2018-05-10T10:36:31.892Z,14.93
2018-05-10T10:38:35.893Z,15.87
2018-05-10T10:40:40.581Z,16.30
2018-05-10T10:44:43.524Z,16.27
2018-05-10T10:46:48.264Z,16.57
2018-05-10T10:48:52.451Z,16.03
2018-05-10T10:51:01.052Z,18.60
2018-05-10T10:53:05.025Z,17.87
2018-05-10T10:55:09.582Z,17.20
2018-05-10T10:57:15.069Z,17.03
2018-05-10T10:59:19.256Z,17.63
2018-05-10T11:01:25.422Z,17.67
2018-05-10T11:03:30.809Z,17.33
2018-05-10T11:05:36.005Z,18.13
2018-05-10T11:07:40.173Z,17.50
2018-05-10T11:09:46.875Z,18.07
2018-05-10T11:11:51.252Z,18.73
2018-05-10T11:13:57.122Z,20.37
2018-05-10T11:16:02.119Z,20.50
2018-05-10T11:18:07.995Z,20.57
2018-05-10T11:20:12.059Z,20.43
2018-05-10T11:22:18.439Z,19.80
2018-05-10T11:24:23.192Z,19.07
2018-05-10T11:26:27.192Z,18.57
2018-05-10T11:28:32.412Z,19.13
2018-05-10T11:30:38.172Z,18.13
2018-05-10T11:32:42.187Z,18.27
2018-05-10T11:34:46.241Z,18.33
2018-05-10T11:36:50.759Z,18.67
2018-05-10T11:38:55.033Z,19.57
2018-05-10T11:40:59.354Z,20.13
2018-05-10T11:43:03.398Z,19.37
2018-05-10T11:45:07.471Z,18.73
2018-05-10T11:47:11.988Z,18.77
2018-05-10T11:49:16.104Z,20.37
2018-05-10T11:51:21.219Z,21.43
2018-05-10T11:53:25.248Z,21.53
2018-05-10T11:55:29.893Z,20.83
2018-05-10T11:57:53.380Z,22.30
2018-05-10T11:59:59.760Z,20.43
2018-05-10T12:02:09.953Z,21.57
2018-05-10T12:04:13.975Z,20.90
2018-05-10T12:06:19.001Z,21.20
2018-05-10T12:08:23.085Z,20.33
2018-05-10T12:10:28.111Z,20.83
2018-05-10T12:12:34.827Z,20.27
2018-05-10T12:14:39.726Z,20.30
2018-05-10T12:16:45.156Z,19.37
2018-05-10T12:18:50.992Z,20.53
2018-05-10T12:20:55.639Z,17.43
2018-05-10T12:23:00.793Z,17.03
2018-05-10T12:25:07.968Z,15.60
2018-05-10T12:27:11.963Z,16.80
2018-05-10T12:29:15.973Z,17.13
2018-05-10T12:31:20.175Z,18.67
2018-05-10T12:33:24.403Z,23.03
2018-05-10T12:35:28.780Z,23.93
2018-05-10T12:37:33.564Z,23.67
2018-05-10T12:39:37.547Z,23.07
2018-05-10T12:41:41.923Z,22.70
2018-05-10T12:43:46.201Z,24.13
2018-05-10T12:45:51.915Z,23.67
2018-05-10T12:47:57.176Z,26.43
2018-05-10T12:50:03.133Z,27.60
2018-05-10T12:52:07.067Z,29.33
2018-05-10T12:54:11.011Z,29.47
2018-05-10T12:56:15.054Z,31.40
2018-05-10T12:58:19.437Z,33.23
2018-05-10T13:00:24.172Z,32.87
2018-05-10T13:02:28.211Z,32.90
2018-05-10T13:04:33.220Z,30.43
2018-05-10T13:06:39.560Z,31.87
2018-05-10T13:08:44.862Z,32.70
2018-05-10T13:10:50.255Z,31.37
2018-05-10T13:12:57.445Z,29.90
2018-05-10T13:15:07.929Z,29.87
2018-05-10T13:17:13.158Z,27.93
2018-05-10T13:19:17.258Z,28.90
2018-05-10T13:21:22.087Z,27.13
2018-05-10T13:23:26.399Z,28.33
2018-05-10T13:25:30.467Z,28.40
2018-05-10T13:27:34.497Z,26.50
2018-05-10T13:29:40.971Z,26.17
2018-05-10T13:31:44.984Z,26.63
2018-05-10T13:33:48.885Z,25.83
2018-05-10T13:35:53.112Z,23.23
2018-05-10T13:37:57.208Z,22.63
2018-05-10T13:40:01.546Z,21.70
2018-05-10T13:42:05.595Z,21.00
2018-05-10T13:44:10.068Z,21.17
2018-05-10T13:46:14.231Z,22.13
2018-05-10T13:48:18.820Z,21.00
2018-05-10T13:50:22.827Z,18.30
2018-05-10T13:52:28.095Z,18.83
2018-05-10T13:54:32.209Z,20.27
2018-05-10T13:56:36.203Z,16.80
2018-05-10T13:58:41.633Z,15.60
2018-05-10T14:00:45.578Z,16.87
2018-05-10T14:02:49.659Z,16.90
2018-05-10T14:04:54.964Z,17.37
2018-05-10T14:07:00.133Z,15.03
2018-05-10T14:09:04.319Z,11.93
2018-05-10T14:11:08.298Z,13.20
2018-05-10T14:13:12.257Z,11.67
2018-05-10T14:15:17.373Z,10.00
2018-05-10T14:17:23.732Z,10.87
2018-05-10T14:19:27.778Z,7.80
2018-05-10T14:21:32.913Z,9.97
2018-05-10T14:23:37.415Z,7.90
2018-05-10T14:25:42.284Z,7.60
2018-05-10T14:27:46.600Z,7.73
2018-05-10T14:29:50.784Z,11.60
2018-05-10T14:31:56.005Z,6.80
2018-05-10T14:34:01.044Z,12.27
2018-05-10T14:36:05.454Z,9.20
2018-05-10T14:38:09.809Z,7.83
2018-05-10T14:40:14.578Z,8.67
2018-05-10T14:42:19.632Z,9.10
2018-05-10T14:44:23.925Z,9.83
2018-05-10T14:46:28.888Z,8.40
2018-05-10T14:48:33.917Z,12.23
2018-05-10T14:50:39.140Z,11.90
2018-05-10T14:52:43.600Z,10.70
2018-05-10T14:54:48.188Z,10.93
2018-05-10T14:56:52.741Z,10.13
2018-05-10T14:58:57.080Z,10.03
2018-05-10T15:01:02.145Z,11.03
2018-05-10T15:03:06.814Z,11.30
2018-05-10T15:05:11.188Z,8.83
2018-05-10T15:07:15.305Z,12.20
2018-05-10T15:09:19.423Z,11.63
2018-05-10T15:11:23.527Z,11.60
2018-05-10T15:13:27.912Z,10.83
2018-05-10T15:15:31.887Z,9.07
2018-05-10T15:17:35.852Z,12.07
2018-05-10T15:19:39.792Z,11.83
2018-05-10T15:21:43.784Z,11.00
2018-05-10T15:23:47.707Z,9.97
2018-05-10T15:25:51.681Z,10.50
2018-05-10T15:27:55.871Z,9.37
2018-05-10T15:30:00.653Z,13.43
2018-05-10T15:32:05.770Z,15.73
2018-05-10T15:34:09.735Z,12.00
2018-05-10T15:36:13.990Z,12.03
2018-05-10T15:38:18.119Z,10.60
2018-05-10T15:40:22.369Z,12.50
2018-05-10T15:42:26.461Z,12.03
2018-05-10T15:44:31.505Z,9.57
2018-05-10T15:46:35.551Z,12.20
2018-05-10T15:48:39.637Z,11.93
2018-05-10T15:50:44.596Z,16.30
2018-05-10T15:52:48.514Z,12.10
2018-05-10T15:54:52.616Z,11.27
2018-05-10T15:56:56.746Z,14.90
2018-05-10T15:59:01.039Z,15.87
2018-05-10T16:01:05.244Z,18.97
2018-05-10T16:03:09.217Z,16.53
2018-05-10T16:05:14.427Z,15.10
2018-05-10T16:07:18.450Z,14.80
2018-05-10T16:09:22.619Z,14.73
2018-05-10T16:11:26.677Z,17.97
2018-05-10T16:13:30.640Z,17.00
2018-05-10T16:15:34.649Z,20.57
2018-05-10T16:17:38.661Z,14.80
2018-05-10T16:19:43.351Z,17.67
2018-05-10T16:21:47.771Z,15.90
2018-05-10T16:23:51.776Z,18.53
2018-05-10T16:25:56.880Z,16.83
2018-05-10T16:28:01.400Z,16.57
2018-05-10T16:30:06.788Z,16.47
2018-05-10T16:32:10.785Z,19.63
2018-05-10T16:34:15.197Z,17.93
2018-05-10T16:36:36.772Z,26.57
2018-05-10T16:38:40.747Z,20.93
2018-05-10T16:40:45.778Z,21.23
2018-05-10T16:42:50.384Z,20.50
2018-05-10T16:44:54.681Z,23.73
2018-05-10T16:47:01.840Z,23.00
2018-05-10T16:49:06.404Z,19.30
2018-05-10T16:51:10.468Z,22.97
2018-05-10T16:53:27.939Z,23.43
2018-05-10T16:55:31.991Z,27.43
2018-05-10T16:57:37.191Z,25.70
2018-05-10T16:59:41.403Z,20.73
2018-05-10T17:01:45.532Z,23.43
2018-05-10T17:03:49.727Z,23.63
2018-05-10T17:05:53.862Z,20.83
2018-05-10T17:07:58.897Z,20.77
2018-05-10T17:10:04.454Z,21.70
2018-05-10T17:12:08.747Z,19.00
2018-05-10T17:14:13.050Z,21.03
2018-05-10T17:16:17.492Z,20.97
2018-05-10T17:18:21.680Z,17.73
2018-05-10T17:20:30.165Z,18.57
2018-05-10T17:22:34.174Z,21.20
2018-05-10T17:24:38.906Z,20.40
2018-05-10T17:26:43.235Z,19.63
2018-05-10T17:28:47.159Z,21.50
2018-05-10T17:30:53.356Z,20.43
2018-05-10T17:33:00.921Z,23.27
2018-05-10T17:35:06.994Z,20.87
2018-05-10T17:37:12.015Z,21.60
2018-05-10T17:39:15.980Z,20.93
2018-05-10T17:41:20.396Z,19.07
2018-05-10T17:43:24.556Z,24.77
2018-05-10T17:45:28.734Z,23.00
2018-05-10T17:47:32.849Z,23.67
2018-05-10T17:49:37.214Z,21.43
2018-05-10T17:51:41.454Z,22.27
2018-05-10T17:53:45.572Z,18.57
2018-05-10T17:55:49.555Z,23.23
2018-05-10T17:57:53.895Z,22.47
2018-05-10T17:59:58.954Z,22.57
2018-05-10T18:02:05.301Z,24.17
2018-05-10T18:04:09.613Z,24.43
2018-05-10T18:06:14.228Z,20.97
2018-05-10T18:08:18.123Z,23.67
2018-05-10T18:10:22.134Z,25.27
2018-05-10T18:12:26.272Z,24.07
2018-05-10T18:14:30.224Z,21.10
2018-05-10T18:16:34.186Z,28.03
2018-05-10T18:18:38.148Z,19.33
2018-05-10T18:20:42.096Z,19.73
2018-05-10T18:22:46.009Z,21.53
2018-05-10T18:24:50.142Z,22.63
2018-05-10T18:26:54.848Z,23.00
2018-05-10T18:28:58.938Z,22.03
2018-05-10T18:31:06.307Z,19.23
2018-05-10T18:33:10.484Z,21.40
2018-05-10T18:35:15.008Z,21.63
2018-05-10T18:37:18.911Z,23.57
2018-05-10T18:39:22.939Z,23.13
2018-05-10T18:41:26.927Z,22.60
2018-05-10T18:43:31.830Z,22.80
2018-05-10T18:45:36.263Z,23.43
2018-05-10T18:47:40.948Z,23.73
2018-05-10T18:49:45.012Z,26.03
2018-05-10T18:51:49.412Z,32.57
2018-05-10T18:53:54.147Z,24.00
2018-05-10T18:55:58.932Z,21.60
2018-05-10T18:58:04.460Z,22.30
2018-05-10T19:00:08.974Z,20.83
2018-05-10T19:02:13.291Z,23.93
2018-05-10T19:04:17.274Z,21.30
2018-05-10T19:06:21.272Z,20.00
2018-05-10T19:08:26.796Z,18.57
2018-05-10T19:10:32.077Z,22.17
2018-05-10T19:12:36.728Z,20.93
2018-05-10T19:14:41.916Z,18.83
2018-05-10T19:16:46.349Z,20.93
2018-05-10T19:18:50.311Z,21.80
2018-05-10T19:20:54.687Z,20.40
2018-05-10T19:23:00.761Z,20.90
2018-05-10T19:25:08.758Z,19.83
2018-05-10T19:27:13.005Z,21.60
2018-05-10T19:29:18.469Z,23.43
2018-05-10T19:31:23.287Z,26.23
2018-05-10T19:33:27.632Z,20.00
2018-05-10T19:35:32.120Z,20.57
2018-05-10T19:37:36.703Z,21.20
2018-05-10T19:39:41.611Z,20.47
2018-05-10T19:41:46.134Z,21.20
2018-05-10T19:43:50.122Z,24.07
2018-05-10T19:45:54.183Z,20.03
2018-05-10T19:47:59.161Z,27.03
2018-05-10T19:50:04.500Z,21.13
2018-05-10T19:52:10.775Z,26.13
2018-05-10T19:54:15.400Z,24.17
2018-05-10T19:56:19.585Z,21.37
2018-05-10T19:58:23.547Z,22.23
2018-05-10T20:00:27.500Z,18.70
2018-05-10T20:02:31.463Z,24.40
2018-05-10T20:04:35.951Z,21.37
2018-05-10T20:06:41.163Z,19.87
2018-05-10T20:08:45.159Z,26.23
2018-05-10T20:10:49.839Z,18.70
2018-05-10T20:12:53.781Z,20.20
2018-05-10T20:14:57.761Z,22.47
2018-05-10T20:17:02.522Z,21.63
2018-05-10T20:19:07.199Z,21.17
2018-05-10T20:21:16.149Z,19.30
2018-05-10T20:23:20.140Z,19.87
2018-05-10T20:25:24.182Z,22.57
2018-05-10T20:27:28.080Z,22.27
2018-05-10T20:29:32.002Z,20.63
2018-05-10T20:31:36.552Z,21.37
2018-05-10T20:33:40.450Z,18.13
2018-05-10T20:35:44.424Z,20.10
2018-05-10T20:37:48.388Z,24.20
2018-05-10T20:39:52.359Z,18.83
2018-05-10T20:41:56.661Z,17.37
2018-05-10T20:44:00.524Z,19.77
2018-05-10T20:46:04.536Z,19.47
2018-05-10T20:48:10.327Z,21.17
2018-05-10T20:50:16.629Z,18.10
2018-05-10T20:52:20.924Z,21.17
2018-05-10T20:54:25.399Z,20.10
2018-05-10T20:56:29.897Z,22.00
2018-05-10T20:58:35.052Z,21.17
2018-05-10T21:00:51.425Z,20.80
2018-05-10T21:02:55.394Z,18.00
2018-05-10T21:05:01.167Z,19.77
2018-05-10T21:07:05.573Z,23.33
2018-05-10T21:09:09.796Z,20.23
2018-05-10T21:11:15.276Z,21.13
2018-05-10T21:13:19.721Z,20.97
2018-05-10T21:15:23.721Z,25.27
2018-05-10T21:17:27.895Z,24.07
2018-05-10T21:19:32.932Z,18.07
2018-05-10T21:21:38.147Z,22.97
2018-05-10T21:23:42.070Z,24.07
2018-05-10T21:25:45.995Z,21.63
2018-05-10T21:27:49.954Z,18.97
2018-05-10T21:29:54.259Z,19.10
2018-05-10T21:31:58.257Z,17.40
2018-05-10T21:34:02.458Z,20.00
2018-05-10T21:36:06.577Z,18.47
2018-05-10T21:38:11.576Z,21.07
2018-05-10T21:40:16.446Z,22.97
2018-05-10T21:42:20.556Z,20.37
2018-05-10T21:44:24.566Z,21.70
2018-05-10T21:46:28.633Z,20.10
2018-05-10T21:48:32.521Z,21.40
2018-05-10T21:50:37.275Z,19.67
2018-05-10T21:52:41.349Z,20.63
2018-05-10T21:54:46.055Z,20.27
2018-05-10T21:56:50.018Z,20.80
2018-05-10T21:58:54.144Z,18.43
2018-05-10T22:00:58.171Z,19.23
2018-05-10T22:03:02.403Z,20.93
2018-05-10T22:05:06.356Z,22.20
2018-05-10T22:07:11.268Z,16.50
2018-05-10T22:09:16.384Z,21.37
2018-05-10T22:11:20.396Z,23.30
2018-05-10T22:13:25.155Z,16.47
2018-05-10T22:15:29.103Z,19.47
2018-05-10T22:17:33.063Z,20.00
2018-05-10T22:19:37.025Z,21.33
2018-05-10T22:21:40.957Z,17.93
2018-05-10T22:23:45.285Z,21.67
2018-05-10T22:25:49.960Z,20.00
2018-05-10T22:27:53.940Z,22.90
2018-05-10T22:29:57.858Z,22.60
2018-05-10T22:32:01.844Z,21.13
2018-05-10T22:34:05.822Z,27.93
2018-05-10T22:36:09.800Z,22.80
2018-05-10T22:38:13.797Z,20.50
2018-05-10T22:40:18.486Z,22.17
2018-05-10T22:42:22.838Z,20.47
2018-05-10T22:44:27.627Z,21.67
2018-05-10T22:46:31.568Z,18.50
2018-05-10T22:48:35.820Z,24.43
2018-05-10T22:50:39.758Z,23.70
2018-05-10T22:52:43.920Z,20.63
2018-05-10T22:54:48.355Z,21.50
2018-05-10T22:56:52.306Z,21.10
2018-05-10T22:58:56.252Z,20.07
2018-05-10T23:01:00.177Z,24.20
2018-05-10T23:03:04.211Z,22.30
2018-05-10T23:05:08.151Z,24.60
2018-05-10T23:07:12.104Z,19.43
2018-05-10T23:09:16.231Z,22.93
2018-05-10T23:11:20.816Z,23.70
2018-05-10T23:13:25.102Z,27.20
2018-05-10T23:15:29.056Z,23.30
2018-05-10T23:17:33.015Z,22.60
2018-05-10T23:19:36.937Z,22.17
2018-05-10T23:21:40.969Z,22.47
2018-05-10T23:23:44.873Z,20.90
2018-05-10T23:25:49.610Z,22.97
2018-05-10T23:27:53.532Z,25.13
2018-05-10T23:29:57.456Z,24.50
2018-05-10T23:32:01.678Z,25.43
2018-05-10T23:34:06.423Z,26.80
2018-05-10T23:36:11.098Z,22.60
2018-05-10T23:38:15.070Z,21.43
2018-05-10T23:40:20.035Z,26.80
2018-05-10T23:42:24.535Z,23.33
2018-05-10T23:44:28.493Z,23.83
2018-05-10T23:46:32.539Z,23.03
2018-05-10T23:48:36.663Z,23.47
2018-05-10T23:50:41.605Z,21.73
2018-05-10T23:52:45.515Z,22.63
2018-05-10T23:54:50.079Z,19.17
2018-05-10T23:56:54.328Z,24.63
2018-05-10T23:58:58.527Z,24.23
